createdAt,value
2018-06-28T00:01:43.093Z,11.40
2018-06-28T00:04:11.609Z,11.40
2018-06-28T00:06:40.102Z,11.30
2018-06-28T00:09:09.528Z,11.30
2018-06-28T00:11:38.125Z,11.30
2018-06-28T00:14:06.904Z,11.30
2018-06-28T00:16:35.461Z,11.20
2018-06-28T00:19:04.136Z,11.20
2018-06-28T00:21:32.662Z,11.30
2018-06-28T00:24:01.238Z,11.30
2018-06-28T00:26:29.780Z,11.20
2018-06-28T00:28:58.341Z,11.20
2018-06-28T00:31:26.902Z,11.10
2018-06-28T00:33:55.528Z,11.10
2018-06-28T00:36:24.087Z,11.10
2018-06-28T00:38:52.689Z,11.10
2018-06-28T00:41:21.283Z,11.00
2018-06-28T00:43:49.917Z,10.90
2018-06-28T00:46:18.475Z,10.90
2018-06-28T00:48:47.064Z,10.80
2018-06-28T00:51:15.679Z,10.80
2018-06-28T00:53:44.228Z,10.80
2018-06-28T00:56:12.758Z,10.90
2018-06-28T00:58:41.318Z,10.90
2018-06-28T01:01:09.799Z,11.00
2018-06-28T01:03:38.425Z,10.90
2018-06-28T01:06:07.009Z,10.90
2018-06-28T01:11:03.777Z,10.80
2018-06-28T01:13:32.311Z,10.70
2018-06-28T01:16:00.939Z,10.70
2018-06-28T01:18:29.648Z,10.70
2018-06-28T01:21:00.143Z,10.60
2018-06-28T01:23:28.641Z,10.50
2018-06-28T01:25:57.315Z,10.50
2018-06-28T01:28:25.881Z,10.40
2018-06-28T01:30:54.832Z,10.40
2018-06-28T01:33:23.485Z,10.30
2018-06-28T01:35:52.001Z,10.40
2018-06-28T01:38:20.534Z,10.40
2018-06-28T01:43:36.316Z,10.30
2018-06-28T01:46:04.943Z,10.30
2018-06-28T01:48:33.483Z,10.30
2018-06-28T01:51:02.034Z,10.20
2018-06-28T01:53:30.547Z,10.20
2018-06-28T01:55:59.090Z,10.10
2018-06-28T01:58:27.730Z,10.10
2018-06-28T02:00:56.267Z,9.90
2018-06-28T02:03:24.812Z,9.90
2018-06-28T02:05:55.168Z,9.80
2018-06-28T02:08:23.777Z,9.80
2018-06-28T02:10:52.285Z,9.70
2018-06-28T02:13:20.970Z,9.70
2018-06-28T02:15:49.536Z,9.80
2018-06-28T02:18:18.123Z,9.80
2018-06-28T02:20:46.685Z,9.80
2018-06-28T02:23:15.193Z,9.80
2018-06-28T02:25:43.731Z,9.70
2018-06-28T02:28:12.265Z,9.70
2018-06-28T02:30:40.843Z,9.60
2018-06-28T02:33:09.274Z,9.50
2018-06-28T02:35:37.687Z,9.50
2018-06-28T02:40:34.246Z,9.50
2018-06-28T02:43:02.673Z,9.60
2018-06-28T02:45:31.086Z,9.50
2018-06-28T02:47:59.524Z,9.50
2018-06-28T02:50:27.944Z,9.50
2018-06-28T02:52:56.348Z,9.40
2018-06-28T02:55:24.774Z,9.40
2018-06-28T02:57:53.229Z,9.40
2018-06-28T03:00:21.633Z,9.30
2018-06-28T03:02:50.089Z,9.30
2018-06-28T03:05:18.535Z,9.30
2018-06-28T03:07:46.991Z,9.30
2018-06-28T03:10:15.449Z,9.30
2018-06-28T03:12:43.876Z,9.30
2018-06-28T03:15:12.334Z,9.30
2018-06-28T03:17:40.747Z,9.20
2018-06-28T03:20:09.205Z,9.10
2018-06-28T03:22:37.650Z,9.10
2018-06-28T03:25:06.105Z,9.20
2018-06-28T03:27:34.538Z,9.10
2018-06-28T03:30:03.047Z,9.00
2018-06-28T03:32:31.452Z,9.10
2018-06-28T03:34:59.873Z,9.20
2018-06-28T03:37:28.291Z,9.20
2018-06-28T03:39:56.706Z,9.20
2018-06-28T03:42:25.113Z,9.10
2018-06-28T03:44:53.499Z,9.10
2018-06-28T03:47:21.926Z,9.20
2018-06-28T03:49:50.365Z,9.20
2018-06-28T03:52:18.794Z,9.20
2018-06-28T03:54:47.260Z,9.20
2018-06-28T03:57:15.728Z,9.20
2018-06-28T03:59:44.782Z,9.30
2018-06-28T04:02:13.210Z,9.30
2018-06-28T04:04:41.665Z,9.30
2018-06-28T04:07:10.090Z,9.30
2018-06-28T04:09:38.500Z,9.30
2018-06-28T04:12:06.928Z,9.30
2018-06-28T04:14:35.346Z,9.30
2018-06-28T04:17:03.839Z,9.30
2018-06-28T04:19:32.266Z,9.30
2018-06-28T04:22:00.754Z,9.40
2018-06-28T04:24:29.217Z,9.40
2018-06-28T04:26:57.698Z,9.50
2018-06-28T04:29:26.135Z,9.60
2018-06-28T04:31:54.633Z,9.60
2018-06-28T04:34:23.086Z,9.60
2018-06-28T04:36:51.530Z,9.70
2018-06-28T04:39:20.010Z,9.70
2018-06-28T04:41:48.518Z,9.80
2018-06-28T04:44:16.953Z,9.90
2018-06-28T04:46:45.428Z,10.00
2018-06-28T04:49:13.868Z,10.10
2018-06-28T04:51:42.387Z,10.20
2018-06-28T04:54:10.818Z,10.40
2018-06-28T04:56:39.325Z,10.60
2018-06-28T04:59:07.790Z,10.90
2018-06-28T05:04:04.489Z,11.70
2018-06-28T05:06:32.982Z,12.30
2018-06-28T05:09:01.550Z,13.00
2018-06-28T05:11:30.107Z,13.90
2018-06-28T05:13:58.584Z,14.50
2018-06-28T05:16:27.155Z,15.20
2018-06-28T05:18:55.749Z,15.40
2018-06-28T05:21:24.261Z,16.10
2018-06-28T05:23:53.295Z,15.90
2018-06-28T05:26:21.807Z,16.50
2018-06-28T05:28:50.310Z,16.70
2018-06-28T05:31:18.787Z,16.90
2018-06-28T05:33:47.267Z,17.30
2018-06-28T05:36:15.785Z,17.70
2018-06-28T05:38:44.298Z,18.30
2018-06-28T05:41:13.349Z,18.70
2018-06-28T05:43:41.857Z,19.00
2018-06-28T05:46:10.327Z,19.30
2018-06-28T05:48:38.831Z,19.60
2018-06-28T05:51:07.338Z,19.90
2018-06-28T05:53:35.769Z,20.20
2018-06-28T05:56:04.284Z,20.60
2018-06-28T05:58:32.788Z,20.70
2018-06-28T06:01:01.252Z,20.70
2018-06-28T06:03:29.740Z,21.20
2018-06-28T06:05:58.238Z,22.00
2018-06-28T06:08:26.729Z,22.50
2018-06-28T06:10:55.183Z,21.90
2018-06-28T06:13:23.643Z,22.80
2018-06-28T06:15:52.103Z,23.10
2018-06-28T06:18:20.587Z,23.60
2018-06-28T06:20:49.082Z,24.00
2018-06-28T06:23:17.547Z,24.30
2018-06-28T06:25:46.042Z,24.30
2018-06-28T06:28:14.530Z,24.30
2018-06-28T06:30:43.069Z,24.40
2018-06-28T06:33:11.618Z,24.10
2018-06-28T06:35:40.091Z,24.40
2018-06-28T06:38:08.588Z,24.50
2018-06-28T06:40:37.094Z,24.60
2018-06-28T06:43:05.827Z,25.40
2018-06-28T06:45:34.345Z,25.80
2018-06-28T06:48:02.806Z,25.80
2018-06-28T06:50:31.250Z,26.20
2018-06-28T06:52:59.735Z,26.50
2018-06-28T06:55:28.198Z,25.90
2018-06-28T06:57:56.849Z,25.70
2018-06-28T07:00:25.298Z,26.30
2018-06-28T07:02:53.757Z,26.60
2018-06-28T07:05:22.246Z,26.80
2018-06-28T07:07:50.686Z,26.90
2018-06-28T07:10:19.483Z,26.60
2018-06-28T07:12:47.635Z,27.30
2018-06-28T07:15:16.062Z,27.60
2018-06-28T07:17:44.550Z,27.50
2018-06-28T07:20:12.962Z,27.50
2018-06-28T07:22:41.403Z,28.20
2018-06-28T07:25:09.886Z,28.10
2018-06-28T07:27:39.376Z,27.40
2018-06-28T07:30:07.918Z,27.90
2018-06-28T07:32:36.818Z,27.90
2018-06-28T07:35:05.316Z,28.60
2018-06-28T07:37:33.762Z,28.40
2018-06-28T07:40:02.230Z,28.70
2018-06-28T07:42:30.753Z,28.60
2018-06-28T07:44:59.177Z,28.90
2018-06-28T07:47:27.695Z,29.90
2018-06-28T07:49:56.181Z,30.60
2018-06-28T07:52:25.477Z,30.40
2018-06-28T07:54:53.918Z,30.70
2018-06-28T07:57:22.414Z,30.60
2018-06-28T07:59:50.838Z,31.00
2018-06-28T08:02:19.269Z,30.70
2018-06-28T08:04:47.714Z,29.90
2018-06-28T08:07:16.207Z,29.90
2018-06-28T08:09:44.655Z,30.20
2018-06-28T08:12:13.250Z,30.70
2018-06-28T08:14:42.762Z,29.10
2018-06-28T08:17:27.866Z,28.40
2018-06-28T08:19:56.333Z,29.10
2018-06-28T08:22:24.788Z,28.90
2018-06-28T08:24:53.269Z,29.00
2018-06-28T08:27:21.717Z,28.80
2018-06-28T08:29:50.165Z,28.70
2018-06-28T08:32:18.615Z,29.60
2018-06-28T08:34:47.097Z,30.60
2018-06-28T08:37:15.591Z,30.80
2018-06-28T08:39:44.018Z,31.00
2018-06-28T08:42:13.032Z,30.90
2018-06-28T08:44:41.598Z,30.40
2018-06-28T08:47:10.465Z,30.40
2018-06-28T08:49:38.952Z,30.60
2018-06-28T08:52:07.407Z,30.40
2018-06-28T08:54:35.853Z,30.00
2018-06-28T08:57:04.308Z,30.00
2018-06-28T08:59:32.793Z,30.50
2018-06-28T09:02:01.311Z,31.30
2018-06-28T09:04:29.898Z,31.40
2018-06-28T09:06:58.338Z,31.60
2018-06-28T09:09:26.855Z,31.90
2018-06-28T09:11:55.370Z,32.40
2018-06-28T09:14:23.851Z,31.60
2018-06-28T09:16:52.394Z,31.60
2018-06-28T09:19:23.644Z,31.00
2018-06-28T09:21:52.106Z,31.60
2018-06-28T09:24:20.566Z,32.40
2018-06-28T09:26:48.982Z,32.50
2018-06-28T09:29:17.405Z,31.70
2018-06-28T09:34:19.094Z,32.50
2018-06-28T09:36:47.556Z,32.00
2018-06-28T09:39:16.071Z,31.50
2018-06-28T09:41:44.529Z,31.60
2018-06-28T09:44:12.938Z,32.20
2018-06-28T09:46:41.397Z,32.00
2018-06-28T09:49:10.758Z,31.00
2018-06-28T09:51:39.797Z,30.50
2018-06-28T09:54:08.268Z,29.30
2018-06-28T09:56:36.745Z,29.30
2018-06-28T09:59:05.237Z,29.00
2018-06-28T10:01:33.816Z,30.20
2018-06-28T10:04:02.322Z,30.50
2018-06-28T10:06:30.765Z,29.70
2018-06-28T10:08:59.215Z,29.70
2018-06-28T10:11:27.666Z,30.20
2018-06-28T10:13:56.153Z,30.90
2018-06-28T10:16:24.738Z,31.20
2018-06-28T10:18:53.144Z,31.20
2018-06-28T10:21:21.581Z,31.40
2018-06-28T10:23:50.065Z,32.00
2018-06-28T10:26:18.585Z,33.80
2018-06-28T10:28:47.698Z,33.70
2018-06-28T10:31:16.150Z,32.90
2018-06-28T10:33:44.641Z,33.40
2018-06-28T10:36:13.263Z,33.30
2018-06-28T10:38:41.707Z,33.10
2018-06-28T10:41:10.206Z,31.90
2018-06-28T10:43:38.642Z,31.00
2018-06-28T10:46:07.074Z,29.60
2018-06-28T10:48:35.532Z,29.50
2018-06-28T10:51:03.959Z,30.30
2018-06-28T10:53:32.393Z,31.50
2018-06-28T10:58:29.004Z,32.70
2018-06-28T11:00:57.525Z,32.90
2018-06-28T11:03:26.508Z,32.80
2018-06-28T11:05:54.929Z,32.70
2018-06-28T11:08:23.372Z,33.70
2018-06-28T11:13:20.067Z,32.70
2018-06-28T11:15:48.562Z,32.00
2018-06-28T11:18:16.953Z,31.60
2018-06-28T11:20:45.410Z,30.50
2018-06-28T11:23:13.841Z,29.90
2018-06-28T11:25:42.264Z,29.90
2018-06-28T11:28:10.676Z,30.60
2018-06-28T11:30:39.122Z,30.90
2018-06-28T11:33:07.798Z,30.70
2018-06-28T11:35:36.226Z,31.30
2018-06-28T11:38:04.918Z,31.90
2018-06-28T11:40:33.377Z,30.90
2018-06-28T11:43:01.843Z,30.20
2018-06-28T11:45:31.095Z,30.00
2018-06-28T11:47:59.504Z,30.80
2018-06-28T11:50:27.929Z,31.70
2018-06-28T11:52:56.383Z,32.20
2018-06-28T11:55:24.810Z,32.60
2018-06-28T11:57:53.257Z,31.80
2018-06-28T12:00:23.637Z,31.70
2018-06-28T12:02:52.055Z,31.10
2018-06-28T12:05:21.238Z,30.80
2018-06-28T12:07:50.608Z,31.00
2018-06-28T12:10:19.042Z,31.80
2018-06-28T12:12:47.508Z,32.90
2018-06-28T12:15:15.983Z,32.80
2018-06-28T12:17:44.409Z,32.70
2018-06-28T12:20:12.840Z,32.80
2018-06-28T12:22:41.254Z,32.80
2018-06-28T12:25:09.700Z,32.00
2018-06-28T12:27:38.113Z,31.10
2018-06-28T12:32:34.705Z,30.20
2018-06-28T12:35:03.242Z,30.10
2018-06-28T12:37:32.903Z,30.60
2018-06-28T12:40:01.610Z,30.70
2018-06-28T12:42:30.443Z,31.20
2018-06-28T12:44:58.904Z,31.10
2018-06-28T12:48:32.501Z,30.80
2018-06-28T12:51:01.865Z,31.20
2018-06-28T12:53:30.458Z,30.20
2018-06-28T12:56:33.296Z,30.40
2018-06-28T12:59:03.081Z,29.90
2018-06-28T13:01:31.775Z,30.30
2018-06-28T13:04:00.274Z,30.60
2018-06-28T13:06:29.267Z,29.80
2018-06-28T13:08:58.240Z,29.20
2018-06-28T13:11:27.371Z,29.20
2018-06-28T13:13:55.892Z,29.30
2018-06-28T13:16:26.658Z,29.90
2018-06-28T13:18:55.085Z,29.90
2018-06-28T13:21:23.519Z,29.40
2018-06-28T13:23:51.957Z,29.40
2018-06-28T13:26:20.444Z,29.10
2018-06-28T13:28:48.978Z,28.30
2018-06-28T13:31:17.401Z,28.70
2018-06-28T13:33:45.889Z,28.90
2018-06-28T13:36:14.330Z,29.50
2018-06-28T13:38:42.771Z,30.20
2018-06-28T13:41:11.393Z,30.50
2018-06-28T13:43:39.801Z,30.90
2018-06-28T13:46:08.276Z,30.60
2018-06-28T13:48:36.769Z,30.20
2018-06-28T13:51:05.219Z,29.80
2018-06-28T13:53:33.659Z,29.50
2018-06-28T13:56:02.109Z,29.80
2018-06-28T13:58:30.590Z,30.00
2018-06-28T14:00:59.017Z,30.50
2018-06-28T14:03:27.528Z,30.40
2018-06-28T14:05:55.881Z,30.80
2018-06-28T14:08:24.304Z,30.50
2018-06-28T14:10:52.742Z,30.90
2018-06-28T14:13:21.167Z,30.30
2018-06-28T14:15:49.570Z,29.50
2018-06-28T14:18:18.017Z,29.20
2018-06-28T14:20:46.481Z,29.00
2018-06-28T14:23:14.957Z,28.30
2018-06-28T14:25:43.447Z,28.00
2018-06-28T14:28:11.843Z,27.90
2018-06-28T14:30:40.287Z,28.10
2018-06-28T14:33:08.753Z,28.20
2018-06-28T14:35:37.202Z,28.60
2018-06-28T14:38:05.866Z,28.20
2018-06-28T14:40:34.334Z,27.90
2018-06-28T14:43:02.758Z,27.60
2018-06-28T14:45:31.193Z,27.90
2018-06-28T14:47:59.733Z,28.20
2018-06-28T14:50:28.232Z,28.40
2018-06-28T14:52:56.673Z,28.40
2018-06-28T14:55:25.135Z,28.30
2018-06-28T14:57:53.607Z,28.60
2018-06-28T15:00:22.061Z,29.00
2018-06-28T15:02:50.487Z,29.10
2018-06-28T15:05:18.906Z,29.30
2018-06-28T15:07:47.332Z,29.00
2018-06-28T15:10:15.763Z,28.70
2018-06-28T15:12:44.191Z,28.00
2018-06-28T15:15:12.675Z,27.70
2018-06-28T15:17:41.094Z,27.40
2018-06-28T15:20:09.534Z,27.50
2018-06-28T15:22:38.038Z,27.90
2018-06-28T15:25:06.510Z,28.30
2018-06-28T15:27:34.940Z,28.00
2018-06-28T15:30:03.425Z,28.30
2018-06-28T15:32:31.887Z,28.60
2018-06-28T15:35:00.494Z,28.50
2018-06-28T15:37:28.965Z,28.50
2018-06-28T15:39:57.436Z,28.20
2018-06-28T15:42:26.102Z,27.90
2018-06-28T15:44:54.575Z,27.60
2018-06-28T15:47:23.130Z,27.10
2018-06-28T15:49:51.622Z,26.80
2018-06-28T15:52:20.851Z,26.60
2018-06-28T15:54:49.464Z,26.60
2018-06-28T15:57:18.079Z,26.70
2018-06-28T15:59:46.575Z,27.00
2018-06-28T16:02:14.995Z,27.20
2018-06-28T16:04:43.443Z,27.30
2018-06-28T16:07:11.922Z,27.30
2018-06-28T16:09:40.347Z,27.20
2018-06-28T16:12:08.779Z,27.30
2018-06-28T16:14:37.266Z,27.30
2018-06-28T16:17:05.737Z,27.40
2018-06-28T16:19:34.150Z,27.20
2018-06-28T16:22:02.592Z,27.30
2018-06-28T16:24:31.004Z,27.40
2018-06-28T16:26:59.425Z,27.20
2018-06-28T16:29:27.849Z,27.10
2018-06-28T16:31:56.656Z,26.90
2018-06-28T16:34:25.092Z,26.60
2018-06-28T16:36:53.511Z,26.50
2018-06-28T16:39:21.989Z,26.40
2018-06-28T16:41:50.418Z,26.50
2018-06-28T16:44:18.848Z,26.60
2018-06-28T16:46:47.286Z,26.50
2018-06-28T16:49:15.729Z,26.50
2018-06-28T16:51:44.182Z,26.50
2018-06-28T16:54:12.638Z,26.50
2018-06-28T16:56:41.738Z,26.50
2018-06-28T16:59:10.173Z,26.40
2018-06-28T17:01:38.620Z,26.30
2018-06-28T17:04:07.158Z,26.40
2018-06-28T17:06:35.646Z,26.30
2018-06-28T17:09:07.753Z,26.20
2018-06-28T17:11:36.201Z,26.30
2018-06-28T17:14:04.944Z,26.20
2018-06-28T17:16:33.392Z,26.30
2018-06-28T17:19:01.816Z,26.30
2018-06-28T17:21:30.252Z,26.20
2018-06-28T17:23:58.670Z,26.10
2018-06-28T17:26:27.101Z,26.00
2018-06-28T17:28:55.532Z,26.00
2018-06-28T17:31:23.970Z,26.00
2018-06-28T17:33:52.395Z,26.00
2018-06-28T17:36:20.878Z,25.90
2018-06-28T17:38:49.350Z,25.90
2018-06-28T17:41:17.791Z,25.80
2018-06-28T17:43:46.224Z,25.80
2018-06-28T17:46:14.685Z,25.70
2018-06-28T17:48:43.257Z,25.60
2018-06-28T17:51:11.707Z,25.60
2018-06-28T17:53:40.158Z,25.60
2018-06-28T17:56:09.005Z,25.50
2018-06-28T17:58:37.555Z,25.50
2018-06-28T18:01:05.981Z,25.40
2018-06-28T18:03:34.454Z,25.40
2018-06-28T18:06:02.874Z,25.40
2018-06-28T18:08:31.358Z,25.30
2018-06-28T18:10:59.825Z,25.20
2018-06-28T18:13:28.279Z,25.10
2018-06-28T18:15:56.830Z,25.10
2018-06-28T18:18:25.278Z,25.00
2018-06-28T18:20:53.858Z,25.00
2018-06-28T18:23:22.305Z,24.90
2018-06-28T18:25:50.739Z,24.90
2018-06-28T18:28:19.161Z,24.80
2018-06-28T18:30:47.597Z,24.70
2018-06-28T18:33:16.009Z,24.60
2018-06-28T18:35:44.455Z,24.60
2018-06-28T18:38:19.555Z,24.50
2018-06-28T18:40:47.953Z,24.50
2018-06-28T18:43:16.486Z,24.50
2018-06-28T18:48:13.087Z,24.20
2018-06-28T18:50:41.584Z,24.20
2018-06-28T18:53:10.117Z,24.20
2018-06-28T18:55:39.855Z,24.10
2018-06-28T18:58:09.834Z,24.00
2018-06-28T19:00:39.368Z,24.00
2018-06-28T19:03:07.846Z,23.90
2018-06-28T19:05:36.339Z,23.80
2018-06-28T19:08:07.922Z,23.80
2018-06-28T19:10:41.920Z,23.60
2018-06-28T19:13:11.628Z,23.50
2018-06-28T19:15:45.539Z,23.40
2018-06-28T19:18:21.697Z,23.40
2018-06-28T19:20:55.521Z,23.40
2018-06-28T19:23:29.576Z,23.30
2018-06-28T19:26:00.105Z,23.20
2018-06-28T19:28:28.538Z,23.10
2018-06-28T19:31:02.394Z,23.00
2018-06-28T19:33:30.870Z,22.90
2018-06-28T19:36:04.399Z,22.80
2018-06-28T19:38:38.031Z,22.70
2018-06-28T19:41:11.594Z,22.60
2018-06-28T19:43:40.053Z,22.50
2018-06-28T19:46:08.502Z,22.30
2018-06-28T19:48:37.013Z,22.20
2018-06-28T19:51:10.854Z,22.20
2018-06-28T19:53:39.336Z,22.10
2018-06-28T19:56:07.878Z,21.90
2018-06-28T19:58:36.334Z,21.70
2018-06-28T20:01:09.997Z,21.60
2018-06-28T20:03:43.753Z,21.40
2018-06-28T20:06:12.202Z,21.10
2018-06-28T20:08:41.673Z,21.00
2018-06-28T20:11:10.217Z,20.90
2018-06-28T20:13:43.957Z,20.70
2018-06-28T20:16:23.836Z,20.50
2018-06-28T20:18:57.945Z,20.30
2018-06-28T20:21:26.729Z,20.00
2018-06-28T20:24:00.888Z,19.80
2018-06-28T20:26:34.669Z,19.60
2018-06-28T20:29:08.706Z,19.50
2018-06-28T20:31:42.583Z,19.30
2018-06-28T20:34:12.635Z,19.20
2018-06-28T20:36:41.271Z,19.10
2018-06-28T20:39:10.415Z,18.90
2018-06-28T20:41:39.107Z,18.80
2018-06-28T20:44:08.117Z,18.70
2018-06-28T20:46:37.153Z,18.60
2018-06-28T20:49:06.737Z,18.40
2018-06-28T20:51:36.383Z,18.30
2018-06-28T20:54:05.033Z,18.20
2018-06-28T20:56:34.388Z,18.10
2018-06-28T20:59:03.569Z,18.00
2018-06-28T21:01:32.087Z,17.90
2018-06-28T21:04:00.558Z,17.80
2018-06-28T21:06:29.122Z,17.70
2018-06-28T21:08:57.686Z,17.70
2018-06-28T21:11:26.099Z,17.60
2018-06-28T21:13:55.094Z,17.50
2018-06-28T21:16:23.575Z,17.40
2018-06-28T21:18:52.784Z,17.40
2018-06-28T21:21:21.257Z,17.30
2018-06-28T21:23:49.677Z,17.30
2018-06-28T21:26:18.377Z,17.20
2018-06-28T21:31:39.616Z,17.10
2018-06-28T21:34:08.174Z,17.00
2018-06-28T21:36:36.621Z,16.90
2018-06-28T21:39:09.057Z,16.80
2018-06-28T21:41:37.604Z,16.80
2018-06-28T21:44:07.135Z,16.70
2018-06-28T21:46:35.573Z,16.70
2018-06-28T21:49:04.238Z,16.60
2018-06-28T21:51:32.778Z,16.60
2018-06-28T21:54:01.226Z,16.60
2018-06-28T21:56:29.915Z,16.50
2018-06-28T21:58:58.390Z,16.50
2018-06-28T22:01:26.818Z,16.40
2018-06-28T22:03:55.249Z,16.40
2018-06-28T22:06:23.679Z,16.30
2018-06-28T22:08:53.707Z,16.30
2018-06-28T22:11:22.220Z,16.20
2018-06-28T22:13:50.701Z,16.20
2018-06-28T22:16:19.158Z,16.10
2018-06-28T22:18:47.629Z,16.10
2018-06-28T22:21:16.066Z,16.00
2018-06-28T22:23:44.516Z,15.90
2018-06-28T22:26:13.026Z,15.90
2018-06-28T22:28:41.503Z,15.80
2018-06-28T22:31:09.982Z,15.80
2018-06-28T22:33:38.436Z,15.70
2018-06-28T22:36:07.810Z,15.70
2018-06-28T22:38:36.299Z,15.70
2018-06-28T22:41:04.749Z,15.60
2018-06-28T22:43:33.164Z,15.60
2018-06-28T22:46:01.610Z,15.60
2018-06-28T22:48:32.916Z,15.70
2018-06-28T22:51:01.430Z,15.70
2018-06-28T22:53:31.868Z,15.70
2018-06-28T22:56:00.291Z,15.70
2018-06-28T22:58:28.733Z,15.70
2018-06-28T23:01:01.325Z,15.70
2018-06-28T23:03:30.067Z,15.70
2018-06-28T23:06:14.673Z,15.80
2018-06-28T23:08:43.189Z,15.90
2018-06-28T23:11:11.674Z,15.90
2018-06-28T23:13:40.133Z,16.00
2018-06-28T23:16:08.989Z,16.00
2018-06-28T23:18:37.455Z,16.00
2018-06-28T23:21:05.993Z,16.10
2018-06-28T23:23:34.485Z,16.20
2018-06-28T23:26:02.994Z,16.10
2018-06-28T23:28:31.493Z,16.10
2018-06-28T23:30:59.965Z,16.20
2018-06-28T23:33:28.525Z,16.10
2018-06-28T23:35:57.087Z,16.10
2018-06-28T23:38:25.497Z,16.10
2018-06-28T23:40:53.973Z,16.10
2018-06-28T23:43:22.409Z,16.10
2018-06-28T23:45:51.000Z,16.20
2018-06-28T23:48:19.373Z,16.20
2018-06-28T23:50:47.843Z,16.20
2018-06-28T23:53:16.313Z,16.20
2018-06-28T23:55:44.886Z,16.20
2018-06-28T23:58:13.509Z,16.20
